sensor_id;sensor_type;location;lat;lon;timestamp;pressure;altitude;pressure_sealevel;temperature;humidity
46007;BME280;31738;50.188;8.524;2023-08-30T00:00:30;98128.78;;;15.33;78.71
46007;BME280;31738;50.188;8.524;2023-08-30T00:02:56;98129.91;;;15.32;78.58
46007;BME280;31738;50.188;8.524;2023-08-30T00:05:21;98131.47;;;15.33;78.50
46007;BME280;31738;50.188;8.524;2023-08-30T00:07:47;98127.50;;;15.31;78.93
46007;BME280;31738;50.188;8.524;2023-08-30T00:10:12;98125.13;;;15.29;78.96
46007;BME280;31738;50.188;8.524;2023-08-30T00:12:38;98127.84;;;15.29;79.10
46007;BME280;31738;50.188;8.524;2023-08-30T00:15:04;98122.88;;;15.31;79.13
46007;BME280;31738;50.188;8.524;2023-08-30T00:17:29;98124.50;;;15.32;79.17
46007;BME280;31738;50.188;8.524;2023-08-30T00:19:55;98124.94;;;15.34;79.07
46007;BME280;31738;50.188;8.524;2023-08-30T00:22:21;98122.13;;;15.39;79.22
46007;BME280;31738;50.188;8.524;2023-08-30T00:24:47;98129.59;;;15.43;79.58
46007;BME280;31738;50.188;8.524;2023-08-30T00:27:13;98128.97;;;15.46;79.73
46007;BME280;31738;50.188;8.524;2023-08-30T00:29:38;98124.84;;;15.48;79.51
46007;BME280;31738;50.188;8.524;2023-08-30T00:32:05;98122.59;;;15.50;79.25
46007;BME280;31738;50.188;8.524;2023-08-30T00:34:31;98120.69;;;15.51;79.30
46007;BME280;31738;50.188;8.524;2023-08-30T00:36:56;98115.28;;;15.51;79.55
46007;BME280;31738;50.188;8.524;2023-08-30T00:39:22;98115.28;;;15.51;79.51
46007;BME280;31738;50.188;8.524;2023-08-30T00:41:48;98119.56;;;15.52;79.51
46007;BME280;31738;50.188;8.524;2023-08-30T00:44:13;98113.06;;;15.53;79.85
46007;BME280;31738;50.188;8.524;2023-08-30T00:46:39;98119.25;;;15.53;79.64
46007;BME280;31738;50.188;8.524;2023-08-30T00:49:05;98109.25;;;15.54;79.90
46007;BME280;31738;50.188;8.524;2023-08-30T00:51:31;98115.91;;;15.56;79.62
46007;BME280;31738;50.188;8.524;2023-08-30T00:53:59;98112.44;;;15.56;79.46
46007;BME280;31738;50.188;8.524;2023-08-30T00:56:27;98108.59;;;15.57;79.93
46007;BME280;31738;50.188;8.524;2023-08-30T00:58:53;98099.34;;;15.58;79.83
46007;BME280;31738;50.188;8.524;2023-08-30T01:01:19;98100.16;;;15.58;79.83
46007;BME280;31738;50.188;8.524;2023-08-30T01:03:45;98100.97;;;15.59;79.89
46007;BME280;31738;50.188;8.524;2023-08-30T01:06:10;98095.56;;;15.59;79.96
46007;BME280;31738;50.188;8.524;2023-08-30T01:08:37;98099.03;;;15.59;79.99
46007;BME280;31738;50.188;8.524;2023-08-30T01:11:11;98095.56;;;15.59;79.83
46007;BME280;31738;50.188;8.524;2023-08-30T01:13:42;98093.94;;;15.58;79.95
46007;BME280;31738;50.188;8.524;2023-08-30T01:16:10;98090.78;;;15.56;79.95
46007;BME280;31738;50.188;8.524;2023-08-30T01:18:37;98084.59;;;15.55;79.95
46007;BME280;31738;50.188;8.524;2023-08-30T01:21:10;98079.50;;;15.54;80.22
46007;BME280;31738;50.188;8.524;2023-08-30T01:23:48;98086.03;;;15.53;80.31
46007;BME280;31738;50.188;8.524;2023-08-30T01:29:20;98084.78;;;15.42;80.39
46007;BME280;31738;50.188;8.524;2023-08-30T01:31:47;98089.53;;;15.45;80.14
46007;BME280;31738;50.188;8.524;2023-08-30T01:34:14;98077.16;;;15.44;80.36
46007;BME280;31738;50.188;8.524;2023-08-30T01:36:41;98080.50;;;15.41;80.47
46007;BME280;31738;50.188;8.524;2023-08-30T01:39:12;98078.88;;;15.39;80.54
46007;BME280;31738;50.188;8.524;2023-08-30T01:41:38;98080.31;;;15.37;80.53
46007;BME280;31738;50.188;8.524;2023-08-30T01:44:07;98081.38;;;15.36;80.47
46007;BME280;31738;50.188;8.524;2023-08-30T01:46:34;98077.44;;;15.33;80.51
46007;BME280;31738;50.188;8.524;2023-08-30T01:49:02;98067.75;;;15.32;80.63
46007;BME280;31738;50.188;8.524;2023-08-30T01:51:29;98063.44;;;15.31;80.92
46007;BME280;31738;50.188;8.524;2023-08-30T01:53:55;98058.03;;;15.31;81.01
46007;BME280;31738;50.188;8.524;2023-08-30T01:56:23;98058.03;;;15.31;80.89
46007;BME280;31738;50.188;8.524;2023-08-30T01:58:48;98073.16;;;15.32;80.95
46007;BME280;31738;50.188;8.524;2023-08-30T02:01:14;98059.63;;;15.32;81.31
46007;BME280;31738;50.188;8.524;2023-08-30T02:03:43;98062.81;;;15.34;81.02
46007;BME280;31738;50.188;8.524;2023-08-30T02:06:13;98057.41;;;15.34;81.24
46007;BME280;31738;50.188;8.524;2023-08-30T02:08:47;98052.00;;;15.34;81.22
46007;BME280;31738;50.188;8.524;2023-08-30T02:11:19;98049.59;;;15.33;81.29
46007;BME280;31738;50.188;8.524;2023-08-30T02:13:48;98048.03;;;15.32;81.32
46007;BME280;31738;50.188;8.524;2023-08-30T02:16:16;98043.44;;;15.32;81.33
46007;BME280;31738;50.188;8.524;2023-08-30T02:18:43;98042.63;;;15.32;81.18
46007;BME280;31738;50.188;8.524;2023-08-30T02:21:10;98043.44;;;15.32;81.27
46007;BME280;31738;50.188;8.524;2023-08-30T02:23:35;98035.78;;;15.34;81.33
46007;BME280;31738;50.188;8.524;2023-08-30T02:26:02;98035.78;;;15.34;81.55
46007;BME280;31738;50.188;8.524;2023-08-30T02:28:28;98033.88;;;15.35;81.43
46007;BME280;31738;50.188;8.524;2023-08-30T02:30:54;98044.38;;;15.36;81.61
46007;BME280;31738;50.188;8.524;2023-08-30T02:33:20;98049.16;;;15.39;81.72
46007;BME280;31738;50.188;8.524;2023-08-30T02:35:46;98042.34;;;15.42;81.84
46007;BME280;31738;50.188;8.524;2023-08-30T02:38:11;98049.31;;;15.43;81.96
46007;BME280;31738;50.188;8.524;2023-08-30T02:40:37;98047.56;;;15.38;81.92
46007;BME280;31738;50.188;8.524;2023-08-30T02:43:02;98042.16;;;15.38;82.18
46007;BME280;31738;50.188;8.524;2023-08-30T02:45:28;98035.66;;;15.39;82.43
46007;BME280;31738;50.188;8.524;2023-08-30T02:47:56;98040.88;;;15.45;82.64
46007;BME280;31738;50.188;8.524;2023-08-30T02:50:23;98035.47;;;15.45;82.41
46007;BME280;31738;50.188;8.524;2023-08-30T02:52:48;98036.28;;;15.45;82.39
46007;BME280;31738;50.188;8.524;2023-08-30T02:55:14;98031.66;;;15.46;82.55
46007;BME280;31738;50.188;8.524;2023-08-30T02:57:39;98030.72;;;15.42;82.60
46007;BME280;31738;50.188;8.524;2023-08-30T03:00:05;98025.31;;;15.42;82.93
46007;BME280;31738;50.188;8.524;2023-08-30T03:02:32;98023.09;;;15.44;82.76
46007;BME280;31738;50.188;8.524;2023-08-30T03:04:59;98027.69;;;15.43;82.80
46007;BME280;31738;50.188;8.524;2023-08-30T03:07:25;98023.09;;;15.44;82.51
46007;BME280;31738;50.188;8.524;2023-08-30T03:09:52;98027.38;;;15.45;82.75
46007;BME280;31738;50.188;8.524;2023-08-30T03:12:19;98023.53;;;15.46;82.63
46007;BME280;31738;50.188;8.524;2023-08-30T03:14:45;98029.44;;;15.48;82.40
46007;BME280;31738;50.188;8.524;2023-08-30T03:17:11;98027.53;;;15.48;82.63
46007;BME280;31738;50.188;8.524;2023-08-30T03:19:37;98033.72;;;15.49;82.55
46007;BME280;31738;50.188;8.524;2023-08-30T03:22:03;98034.19;;;15.51;82.69
46007;BME280;31738;50.188;8.524;2023-08-30T03:24:28;98033.06;;;15.52;82.79
46007;BME280;31738;50.188;8.524;2023-08-30T03:26:54;98021.16;;;15.53;83.04
46007;BME280;31738;50.188;8.524;2023-08-30T03:29:19;98031.31;;;15.56;83.06
46007;BME280;31738;50.188;8.524;2023-08-30T03:31:45;98031.00;;;15.57;83.11
46007;BME280;31738;50.188;8.524;2023-08-30T03:34:11;98023.66;;;15.58;83.07
46007;BME280;31738;50.188;8.524;2023-08-30T03:36:37;98025.28;;;15.59;83.28
46007;BME280;31738;50.188;8.524;2023-08-30T03:39:03;98032.91;;;15.57;83.05
46007;BME280;31738;50.188;8.524;2023-08-30T03:41:28;98026.38;;;15.58;83.07
46007;BME280;31738;50.188;8.524;2023-08-30T03:43:54;98029.56;;;15.60;83.01
46007;BME280;31738;50.188;8.524;2023-08-30T03:46:20;98021.44;;;15.60;83.08
46007;BME280;31738;50.188;8.524;2023-08-30T03:48:45;98030.34;;;15.60;82.90
46007;BME280;31738;50.188;8.524;2023-08-30T03:51:10;98035.44;;;15.62;82.82
46007;BME280;31738;50.188;8.524;2023-08-30T03:53:36;98028.09;;;15.62;83.21
46007;BME280;31738;50.188;8.524;2023-08-30T03:56:02;98031.59;;;15.63;82.96
46007;BME280;31738;50.188;8.524;2023-08-30T03:58:29;98020.00;;;15.62;82.91
46007;BME280;31738;50.188;8.524;2023-08-30T04:00:54;98018.41;;;15.61;83.07
46007;BME280;31738;50.188;8.524;2023-08-30T04:03:20;98025.28;;;15.59;82.91
46007;BME280;31738;50.188;8.524;2023-08-30T04:05:45;98032.91;;;15.57;83.37
46007;BME280;31738;50.188;8.524;2023-08-30T04:08:11;98029.06;;;15.58;83.28
46007;BME280;31738;50.188;8.524;2023-08-30T04:10:41;98021.44;;;15.60;83.33
46007;BME280;31738;50.188;8.524;2023-08-30T04:13:08;98018.25;;;15.58;83.49
46007;BME280;31738;50.188;8.524;2023-08-30T04:15:37;98016.69;;;15.57;83.50
46007;BME280;31738;50.188;8.524;2023-08-30T04:18:03;98015.88;;;15.56;83.42
46007;BME280;31738;50.188;8.524;2023-08-30T04:20:29;98015.88;;;15.56;83.37
46007;BME280;31738;50.188;8.524;2023-08-30T04:22:55;98013.50;;;15.55;83.25
46007;BME280;31738;50.188;8.524;2023-08-30T04:25:22;98018.13;;;15.54;83.22
46007;BME280;31738;50.188;8.524;2023-08-30T04:27:48;98017.34;;;15.54;83.16
46007;BME280;31738;50.188;8.524;2023-08-30T04:30:15;98017.34;;;15.54;83.49
46007;BME280;31738;50.188;8.524;2023-08-30T04:32:41;98013.06;;;15.53;83.45
46007;BME280;31738;50.188;8.524;2023-08-30T04:35:07;98012.72;;;15.54;83.33
46007;BME280;31738;50.188;8.524;2023-08-30T04:37:33;98010.34;;;15.53;83.07
46007;BME280;31738;50.188;8.524;2023-08-30T04:39:58;98017.66;;;15.52;83.38
46007;BME280;31738;50.188;8.524;2023-08-30T04:42:24;98007.97;;;15.51;83.32
46007;BME280;31738;50.188;8.524;2023-08-30T04:44:51;98004.94;;;15.53;83.48
46007;BME280;31738;50.188;8.524;2023-08-30T04:47:17;98004.47;;;15.51;83.53
46007;BME280;31738;50.188;8.524;2023-08-30T04:49:43;98015.28;;;15.51;83.43
46007;BME280;31738;50.188;8.524;2023-08-30T04:52:09;98018.31;;;15.49;83.44
46007;BME280;31738;50.188;8.524;2023-08-30T04:54:35;98015.44;;;15.46;83.75
46007;BME280;31738;50.188;8.524;2023-08-30T04:57:01;98016.09;;;15.43;83.72
46007;BME280;31738;50.188;8.524;2023-08-30T04:59:26;98010.69;;;15.43;83.59
46007;BME280;31738;50.188;8.524;2023-08-30T05:01:52;98015.31;;;15.42;83.77
46007;BME280;31738;50.188;8.524;2023-08-30T05:04:19;98020.72;;;15.42;83.94
46007;BME280;31738;50.188;8.524;2023-08-30T05:06:44;98010.69;;;15.43;84.23
46007;BME280;31738;50.188;8.524;2023-08-30T05:09:10;98005.28;;;15.43;84.13
46007;BME280;31738;50.188;8.524;2023-08-30T05:11:35;98007.66;;;15.44;84.31
46007;BME280;31738;50.188;8.524;2023-08-30T05:14:01;98011.97;;;15.45;84.17
46007;BME280;31738;50.188;8.524;2023-08-30T05:16:26;98010.03;;;15.46;84.32
46007;BME280;31738;50.188;8.524;2023-08-30T05:18:52;98008.94;;;15.47;84.13
46007;BME280;31738;50.188;8.524;2023-08-30T05:21:17;98010.19;;;15.49;84.37
46007;BME280;31738;50.188;8.524;2023-08-30T05:23:43;98007.16;;;15.51;84.51
46007;BME280;31738;50.188;8.524;2023-08-30T05:26:10;98006.53;;;15.54;84.66
46007;BME280;31738;50.188;8.524;2023-08-30T05:28:38;98006.19;;;15.55;84.62
46007;BME280;31738;50.188;8.524;2023-08-30T05:31:05;98000.47;;;15.57;84.64
46007;BME280;31738;50.188;8.524;2023-08-30T05:33:56;98004.75;;;15.58;84.54
46007;BME280;31738;50.188;8.524;2023-08-30T05:36:28;98005.22;;;15.60;84.46
46007;BME280;31738;50.188;8.524;2023-08-30T05:39:13;98004.75;;;15.58;84.62
46007;BME280;31738;50.188;8.524;2023-08-30T05:41:46;98002.03;;;15.58;84.53
46007;BME280;31738;50.188;8.524;2023-08-30T05:44:13;98000.28;;;15.62;84.77
46007;BME280;31738;50.188;8.524;2023-08-30T05:46:39;97999.50;;;15.61;84.58
46007;BME280;31738;50.188;8.524;2023-08-30T05:49:04;98004.56;;;15.63;85.07
46007;BME280;31738;50.188;8.524;2023-08-30T05:51:29;98006.31;;;15.67;84.71
46007;BME280;31738;50.188;8.524;2023-08-30T05:53:56;98004.25;;;15.73;84.62
46007;BME280;31738;50.188;8.524;2023-08-30T05:56:21;98007.38;;;15.75;84.75
46007;BME280;31738;50.188;8.524;2023-08-30T05:58:47;98012.78;;;15.75;84.88
46007;BME280;31738;50.188;8.524;2023-08-30T06:01:13;98001.34;;;15.78;84.94
46007;BME280;31738;50.188;8.524;2023-08-30T06:03:39;97996.88;;;15.82;84.70
46007;BME280;31738;50.188;8.524;2023-08-30T06:06:05;97997.31;;;15.84;84.87
46007;BME280;31738;50.188;8.524;2023-08-30T06:08:30;97997.00;;;15.85;84.94
46007;BME280;31738;50.188;8.524;2023-08-30T06:10:56;97999.38;;;15.87;85.14
46007;BME280;31738;50.188;8.524;2023-08-30T06:13:22;97999.53;;;15.90;84.95
46007;BME280;31738;50.188;8.524;2023-08-30T06:15:51;97995.84;;;15.95;85.07
46007;BME280;31738;50.188;8.524;2023-08-30T06:18:18;97997.47;;;15.96;84.72
46007;BME280;31738;50.188;8.524;2023-08-30T06:20:43;97987.72;;;15.95;84.83
46007;BME280;31738;50.188;8.524;2023-08-30T06:23:08;97990.91;;;15.97;84.71
46007;BME280;31738;50.188;8.524;2023-08-30T06:25:35;97994.09;;;15.99;84.42
46007;BME280;31738;50.188;8.524;2023-08-30T06:28:01;97994.53;;;16.01;84.52
46007;BME280;31738;50.188;8.524;2023-08-30T06:30:28;97989.13;;;16.01;84.84
46007;BME280;31738;50.188;8.524;2023-08-30T06:32:55;98000.09;;;16.04;84.63
46007;BME280;31738;50.188;8.524;2023-08-30T06:35:21;98000.25;;;16.08;84.74
46007;BME280;31738;50.188;8.524;2023-08-30T06:37:47;97992.72;;;16.13;84.50
46007;BME280;31738;50.188;8.524;2023-08-30T06:40:12;97991.28;;;16.16;84.60
46007;BME280;31738;50.188;8.524;2023-08-30T06:42:37;97992.06;;;16.16;84.46
46007;BME280;31738;50.188;8.524;2023-08-30T06:45:04;97994.44;;;16.18;84.70
46007;BME280;31738;50.188;8.524;2023-08-30T06:47:30;97993.78;;;16.21;84.97
46007;BME280;31738;50.188;8.524;2023-08-30T06:49:55;97989.34;;;16.25;84.95
46007;BME280;31738;50.188;8.524;2023-08-30T06:52:20;97996.13;;;16.31;85.25
46007;BME280;31738;50.188;8.524;2023-08-30T06:54:46;97986.69;;;16.37;85.14
46007;BME280;31738;50.188;8.524;2023-08-30T06:57:12;97985.38;;;16.43;84.96
46007;BME280;31738;50.188;8.524;2023-08-30T06:59:37;97987.91;;;16.48;85.37
46007;BME280;31738;50.188;8.524;2023-08-30T07:02:03;97986.47;;;16.50;85.16
46007;BME280;31738;50.188;8.524;2023-08-30T07:04:28;97982.78;;;16.55;85.00
46007;BME280;31738;50.188;8.524;2023-08-30T07:06:54;97981.44;;;16.61;84.92
46007;BME280;31738;50.188;8.524;2023-08-30T07:09:19;97976.50;;;16.63;85.29
46007;BME280;31738;50.188;8.524;2023-08-30T07:11:45;97984.63;;;16.63;85.38
46007;BME280;31738;50.188;8.524;2023-08-30T07:14:11;97982.50;;;16.68;85.41
46007;BME280;31738;50.188;8.524;2023-08-30T07:16:38;97974.97;;;16.74;85.12
46007;BME280;31738;50.188;8.524;2023-08-30T07:19:03;97985.94;;;16.77;85.00
46007;BME280;31738;50.188;8.524;2023-08-30T07:21:28;97982.91;;;16.79;85.10
46007;BME280;31738;50.188;8.524;2023-08-30T07:23:54;97978.09;;;16.84;85.39
46007;BME280;31738;50.188;8.524;2023-08-30T07:26:20;97975.75;;;16.95;85.24
46007;BME280;31738;50.188;8.524;2023-08-30T07:28:45;97979.16;;;17.04;85.06
46007;BME280;31738;50.188;8.524;2023-08-30T07:31:11;97981.00;;;17.12;84.84
46007;BME280;31738;50.188;8.524;2023-08-30T07:33:40;97971.22;;;17.20;84.91
46007;BME280;31738;50.188;8.524;2023-08-30T07:36:06;97974.69;;;17.20;85.04
46007;BME280;31738;50.188;8.524;2023-08-30T07:38:32;97974.03;;;17.23;84.98
46007;BME280;31738;50.188;8.524;2023-08-30T07:40:57;97968.41;;;17.28;84.68
46007;BME280;31738;50.188;8.524;2023-08-30T07:43:23;97975.31;;;17.38;84.91
46007;BME280;31738;50.188;8.524;2023-08-30T07:45:49;97979.09;;;17.45;84.59
46007;BME280;31738;50.188;8.524;2023-08-30T07:48:14;97975.94;;;17.55;84.45
46007;BME280;31738;50.188;8.524;2023-08-30T07:50:40;97975.03;;;17.63;84.36
46007;BME280;31738;50.188;8.524;2023-08-30T07:53:05;97977.53;;;17.68;84.04
46007;BME280;31738;50.188;8.524;2023-08-30T07:55:30;97970.88;;;17.78;84.25
46007;BME280;31738;50.188;8.524;2023-08-30T07:57:56;97979.25;;;17.85;84.13
46007;BME280;31738;50.188;8.524;2023-08-30T08:00:21;97977.53;;;17.92;83.97
46007;BME280;31738;50.188;8.524;2023-08-30T08:02:47;97972.38;;;17.99;83.66
46007;BME280;31738;50.188;8.524;2023-08-30T08:05:12;97978.88;;;18.10;83.46
46007;BME280;31738;50.188;8.524;2023-08-30T08:07:39;97985.69;;;18.16;82.90
46007;BME280;31738;50.188;8.524;2023-08-30T08:10:06;97988.63;;;18.23;82.97
46007;BME280;31738;50.188;8.524;2023-08-30T08:12:32;97992.81;;;18.33;82.76
46007;BME280;31738;50.188;8.524;2023-08-30T08:14:58;97992.34;;;18.43;82.37
46007;BME280;31738;50.188;8.524;2023-08-30T08:17:23;97999.25;;;18.52;81.91
46007;BME280;31738;50.188;8.524;2023-08-30T08:19:49;97995.97;;;18.59;81.45
46007;BME280;31738;50.188;8.524;2023-08-30T08:22:14;98003.84;;;18.64;81.33
46007;BME280;31738;50.188;8.524;2023-08-30T08:24:40;97998.41;;;18.64;81.13
46007;BME280;31738;50.188;8.524;2023-08-30T08:27:05;98011.91;;;18.60;81.16
46007;BME280;31738;50.188;8.524;2023-08-30T08:29:31;98017.34;;;18.60;80.70
46007;BME280;31738;50.188;8.524;2023-08-30T08:31:56;98023.91;;;18.59;81.18
46007;BME280;31738;50.188;8.524;2023-08-30T08:34:22;98022.09;;;18.63;81.08
46007;BME280;31738;50.188;8.524;2023-08-30T08:36:48;98015.50;;;18.64;80.94
46007;BME280;31738;50.188;8.524;2023-08-30T08:39:13;98016.84;;;18.70;81.47
46007;BME280;31738;50.188;8.524;2023-08-30T08:41:44;98013.69;;;18.81;80.84
46007;BME280;31738;50.188;8.524;2023-08-30T08:44:10;98024.63;;;18.84;80.71
46007;BME280;31738;50.188;8.524;2023-08-30T08:46:39;98015.25;;;18.82;80.73
46007;BME280;31738;50.188;8.524;2023-08-30T08:49:11;98017.28;;;18.85;80.50
46007;BME280;31738;50.188;8.524;2023-08-30T08:51:39;98017.75;;;18.87;79.90
46007;BME280;31738;50.188;8.524;2023-08-30T08:54:05;98018.09;;;18.85;80.03
46007;BME280;31738;50.188;8.524;2023-08-30T08:56:31;98026.13;;;18.82;80.22
46007;BME280;31738;50.188;8.524;2023-08-30T08:59:00;98018.84;;;18.86;80.24
46007;BME280;31738;50.188;8.524;2023-08-30T09:01:27;98026.53;;;18.96;80.28
46007;BME280;31738;50.188;8.524;2023-08-30T09:03:52;98032.16;;;19.03;80.13
46007;BME280;31738;50.188;8.524;2023-08-30T09:06:18;98028.63;;;19.14;79.89
46007;BME280;31738;50.188;8.524;2023-08-30T09:08:44;98027.09;;;19.29;79.28
46007;BME280;31738;50.188;8.524;2023-08-30T09:11:10;98031.38;;;19.42;78.86
46007;BME280;31738;50.188;8.524;2023-08-30T09:13:35;98030.84;;;19.52;78.68
46007;BME280;31738;50.188;8.524;2023-08-30T09:16:01;98037.63;;;19.58;78.04
46007;BME280;31738;50.188;8.524;2023-08-30T09:18:28;98040.69;;;19.56;77.30
46007;BME280;31738;50.188;8.524;2023-08-30T09:21:05;98043.16;;;19.61;77.61
46007;BME280;31738;50.188;8.524;2023-08-30T09:23:31;98036.78;;;19.69;77.85
46007;BME280;31738;50.188;8.524;2023-08-30T09:25:56;98023.78;;;19.78;77.91
46007;BME280;31738;50.188;8.524;2023-08-30T09:28:22;98028.78;;;19.92;77.43
46007;BME280;31738;50.188;8.524;2023-08-30T09:30:51;98024.06;;;20.04;76.78
46007;BME280;31738;50.188;8.524;2023-08-30T09:33:21;98020.28;;;20.09;76.58
46007;BME280;31738;50.188;8.524;2023-08-30T09:35:47;98025.00;;;20.12;76.28
46007;BME280;31738;50.188;8.524;2023-08-30T09:38:17;98028.97;;;20.14;76.03
46007;BME280;31738;50.188;8.524;2023-08-30T09:40:43;98026.00;;;20.19;75.90
46007;BME280;31738;50.188;8.524;2023-08-30T09:43:09;98023.00;;;20.24;76.06
46007;BME280;31738;50.188;8.524;2023-08-30T09:45:34;98023.09;;;20.28;75.93
46007;BME280;31738;50.188;8.524;2023-08-30T09:48:01;98015.53;;;20.37;75.91
46007;BME280;31738;50.188;8.524;2023-08-30T09:50:27;98011.03;;;20.45;75.13
46007;BME280;31738;50.188;8.524;2023-08-30T09:52:54;98009.78;;;20.42;74.77
46007;BME280;31738;50.188;8.524;2023-08-30T09:55:20;98004.06;;;20.47;75.19
46007;BME280;31738;50.188;8.524;2023-08-30T09:57:47;98008.19;;;20.57;75.15
46007;BME280;31738;50.188;8.524;2023-08-30T10:00:14;97999.09;;;20.68;74.72
46007;BME280;31738;50.188;8.524;2023-08-30T10:02:41;98004.41;;;20.80;74.13
46007;BME280;31738;50.188;8.524;2023-08-30T10:05:10;98006.03;;;21.00;73.15
46007;BME280;31738;50.188;8.524;2023-08-30T10:07:36;98014.94;;;21.16;72.50
46007;BME280;31738;50.188;8.524;2023-08-30T10:10:03;98013.50;;;21.22;72.25
46007;BME280;31738;50.188;8.524;2023-08-30T10:12:33;98010.47;;;21.27;71.88
46007;BME280;31738;50.188;8.524;2023-08-30T10:14:59;98015.97;;;21.31;71.72
46007;BME280;31738;50.188;8.524;2023-08-30T10:17:32;98014.03;;;21.50;71.92
46007;BME280;31738;50.188;8.524;2023-08-30T10:20:01;98015.00;;;21.61;71.28
46007;BME280;31738;50.188;8.524;2023-08-30T10:22:29;98017.31;;;21.59;70.43
46007;BME280;31738;50.188;8.524;2023-08-30T10:24:58;98009.53;;;21.61;70.55
46007;BME280;31738;50.188;8.524;2023-08-30T10:27:26;98022.84;;;21.63;70.06
46007;BME280;31738;50.188;8.524;2023-08-30T10:29:52;98022.84;;;21.63;69.76
46007;BME280;31738;50.188;8.524;2023-08-30T10:32:19;98029.44;;;21.62;69.53
46007;BME280;31738;50.188;8.524;2023-08-30T10:34:48;98032.53;;;21.60;68.04
46007;BME280;31738;50.188;8.524;2023-08-30T10:37:14;98037.31;;;21.44;67.86
46007;BME280;31738;50.188;8.524;2023-08-30T10:39:41;98039.19;;;21.40;68.59
46007;BME280;31738;50.188;8.524;2023-08-30T10:42:11;98040.47;;;21.46;68.84
46007;BME280;31738;50.188;8.524;2023-08-30T10:44:56;98030.25;;;21.62;68.40
46007;BME280;31738;50.188;8.524;2023-08-30T10:47:27;98024.09;;;21.88;68.34
46007;BME280;31738;50.188;8.524;2023-08-30T10:50:00;98033.88;;;22.12;66.17
46007;BME280;31738;50.188;8.524;2023-08-30T10:52:27;98026.44;;;22.35;65.95
46007;BME280;31738;50.188;8.524;2023-08-30T10:55:10;98031.56;;;22.62;65.27
46007;BME280;31738;50.188;8.524;2023-08-30T10:57:36;98047.16;;;22.62;64.33
46007;BME280;31738;50.188;8.524;2023-08-30T11:00:19;98044.00;;;22.60;63.22
46007;BME280;31738;50.188;8.524;2023-08-30T11:02:46;98046.28;;;22.54;63.77
46007;BME280;31738;50.188;8.524;2023-08-30T11:05:15;98040.97;;;22.65;63.41
46007;BME280;31738;50.188;8.524;2023-08-30T11:07:41;98042.13;;;22.64;62.21
46007;BME280;31738;50.188;8.524;2023-08-30T11:10:07;98047.16;;;22.62;62.37
46007;BME280;31738;50.188;8.524;2023-08-30T11:12:34;98048.13;;;22.73;62.28
46007;BME280;31738;50.188;8.524;2023-08-30T11:15:01;98046.31;;;22.84;61.45
46007;BME280;31738;50.188;8.524;2023-08-30T11:17:27;98048.34;;;22.90;60.78
46007;BME280;31738;50.188;8.524;2023-08-30T11:20:13;98058.47;;;22.86;60.80
46007;BME280;31738;50.188;8.524;2023-08-30T11:22:47;98057.66;;;22.86;61.22
46007;BME280;31738;50.188;8.524;2023-08-30T11:25:13;98052.31;;;22.93;60.70
46007;BME280;31738;50.188;8.524;2023-08-30T11:27:39;98047.06;;;23.10;59.65
46007;BME280;31738;50.188;8.524;2023-08-30T11:30:06;98054.88;;;23.12;60.73
46007;BME280;31738;50.188;8.524;2023-08-30T11:32:38;98051.34;;;23.08;59.93
46007;BME280;31738;50.188;8.524;2023-08-30T11:35:04;98053.41;;;23.18;59.67
46007;BME280;31738;50.188;8.524;2023-08-30T11:37:31;98047.84;;;23.11;59.50
46007;BME280;31738;50.188;8.524;2023-08-30T11:39:57;98054.72;;;22.98;59.21
46007;BME280;31738;50.188;8.524;2023-08-30T11:42:23;98058.41;;;22.83;59.15
46007;BME280;31738;50.188;8.524;2023-08-30T11:44:49;98055.94;;;22.74;59.79
46007;BME280;31738;50.188;8.524;2023-08-30T11:47:25;98053.53;;;22.69;59.99
46007;BME280;31738;50.188;8.524;2023-08-30T11:49:55;98049.97;;;22.65;60.80
46007;BME280;31738;50.188;8.524;2023-08-30T11:52:22;98045.06;;;22.78;59.93
46007;BME280;31738;50.188;8.524;2023-08-30T11:54:49;98035.41;;;22.87;59.88
46007;BME280;31738;50.188;8.524;2023-08-30T11:57:15;98030.50;;;23.00;59.52
46007;BME280;31738;50.188;8.524;2023-08-30T11:59:41;98034.50;;;23.06;59.04
46007;BME280;31738;50.188;8.524;2023-08-30T12:02:07;98028.13;;;22.98;58.66
46007;BME280;31738;50.188;8.524;2023-08-30T12:04:36;98033.47;;;22.88;57.92
46007;BME280;31738;50.188;8.524;2023-08-30T12:07:04;98042.28;;;22.74;58.19
46007;BME280;31738;50.188;8.524;2023-08-30T12:09:31;98048.63;;;22.82;57.53
46007;BME280;31738;50.188;8.524;2023-08-30T12:12:13;98048.31;;;22.87;57.22
46007;BME280;31738;50.188;8.524;2023-08-30T12:14:39;98051.38;;;22.82;57.49
46007;BME280;31738;50.188;8.524;2023-08-30T12:17:05;98063.06;;;22.79;56.94
46007;BME280;31738;50.188;8.524;2023-08-30T12:19:31;98056.75;;;22.75;56.50
46007;BME280;31738;50.188;8.524;2023-08-30T12:22:03;98054.31;;;22.70;57.02
46007;BME280;31738;50.188;8.524;2023-08-30T12:24:28;98054.94;;;22.60;56.92
46007;BME280;31738;50.188;8.524;2023-08-30T12:26:54;98056.03;;;22.52;57.33
46007;BME280;31738;50.188;8.524;2023-08-30T12:29:19;98055.50;;;22.46;55.94
46007;BME280;31738;50.188;8.524;2023-08-30T12:31:45;98062.13;;;22.45;55.70
46007;BME280;31738;50.188;8.524;2023-08-30T12:34:11;98050.41;;;22.45;55.45
46007;BME280;31738;50.188;8.524;2023-08-30T12:36:36;98059.81;;;22.47;55.31
46007;BME280;31738;50.188;8.524;2023-08-30T12:39:02;98054.00;;;22.49;55.49
46007;BME280;31738;50.188;8.524;2023-08-30T12:41:29;98059.03;;;22.47;54.52
46007;BME280;31738;50.188;8.524;2023-08-30T12:43:54;98052.41;;;22.48;55.11
46007;BME280;31738;50.188;8.524;2023-08-30T12:46:20;98053.69;;;22.54;54.55
46007;BME280;31738;50.188;8.524;2023-08-30T12:48:45;98057.28;;;22.58;53.96
46007;BME280;31738;50.188;8.524;2023-08-30T12:51:11;98062.78;;;22.61;53.85
46007;BME280;31738;50.188;8.524;2023-08-30T12:53:38;98060.53;;;22.67;54.34
46007;BME280;31738;50.188;8.524;2023-08-30T12:56:04;98059.06;;;22.73;53.10
46007;BME280;31738;50.188;8.524;2023-08-30T12:58:29;98061.56;;;22.85;53.21
46007;BME280;31738;50.188;8.524;2023-08-30T13:00:55;98053.13;;;22.97;53.90